sensor_id;sensor_type;location;lat;lon;timestamp;pressure;altitude;pressure_sealevel;temperature;humidity
67109;BME280;54027;50.786;7.058;2022-10-16T00:02:18;100752.97;;;14.09;76.30
67109;BME280;54027;50.786;7.058;2022-10-16T00:04:43;100750.38;;;14.09;76.61
67109;BME280;54027;50.786;7.058;2022-10-16T00:07:09;100752.13;;;14.09;76.54
67109;BME280;54027;50.786;7.058;2022-10-16T00:09:34;100753.03;;;14.08;77.16
67109;BME280;54027;50.786;7.058;2022-10-16T00:11:59;100754.84;;;14.06;76.90
67109;BME280;54027;50.786;7.058;2022-10-16T00:14:24;100751.50;;;14.02;77.19
67109;BME280;54027;50.786;7.058;2022-10-16T00:16:49;100747.94;;;14.05;77.01
67109;BME280;54027;50.786;7.058;2022-10-16T00:19:15;100757.56;;;14.03;77.41
67109;BME280;54027;50.786;7.058;2022-10-16T00:21:40;100754.94;;;14.03;77.25
67109;BME280;54027;50.786;7.058;2022-10-16T00:24:06;100748.81;;;14.04;77.34
67109;BME280;54027;50.786;7.058;2022-10-16T00:26:33;100754.94;;;14.03;76.80
67109;BME280;54027;50.786;7.058;2022-10-16T00:28:59;100759.34;;;14.02;77.10
67109;BME280;54027;50.786;7.058;2022-10-16T00:31:25;100770.78;;;13.98;77.21
67109;BME280;54027;50.786;7.058;2022-10-16T00:33:50;100763.00;;;13.97;76.98
67109;BME280;54027;50.786;7.058;2022-10-16T00:36:17;100769.16;;;13.96;77.25
67109;BME280;54027;50.786;7.058;2022-10-16T00:38:42;100773.63;;;13.92;77.23
67109;BME280;54027;50.786;7.058;2022-10-16T00:41:09;100772.75;;;13.92;77.43
67109;BME280;54027;50.786;7.058;2022-10-16T00:46:26;100756.09;;;13.96;77.47
67109;BME280;54027;50.786;7.058;2022-10-16T00:49:31;100754.25;;;13.98;77.22
67109;BME280;54027;50.786;7.058;2022-10-16T00:51:45;100763.97;;;13.94;77.44
67109;BME280;54027;50.786;7.058;2022-10-16T00:54:12;100753.41;;;13.97;77.09
67109;BME280;54027;50.786;7.058;2022-10-16T00:56:38;100767.38;;;13.96;77.03
67109;BME280;54027;50.786;7.058;2022-10-16T00:59:06;100760.66;;;13.89;77.17
67109;BME280;54027;50.786;7.058;2022-10-16T01:01:32;100758.72;;;13.94;77.26
67109;BME280;54027;50.786;7.058;2022-10-16T01:03:58;100758.16;;;13.86;77.30
67109;BME280;54027;50.786;7.058;2022-10-16T01:14:02;100761.44;;;13.91;77.02
67109;BME280;54027;50.786;7.058;2022-10-16T01:21:50;100762.59;;;13.84;76.93
67109;BME280;54027;50.786;7.058;2022-10-16T01:27:07;100765.25;;;13.83;76.76
67109;BME280;54027;50.786;7.058;2022-10-16T01:32:05;100771.41;;;13.80;76.97
67109;BME280;54027;50.786;7.058;2022-10-16T01:34:35;100770.56;;;13.80;76.98
67109;BME280;54027;50.786;7.058;2022-10-16T01:37:03;100765.25;;;13.83;76.85
67109;BME280;54027;50.786;7.058;2022-10-16T01:39:30;100769.72;;;13.79;77.07
67109;BME280;54027;50.786;7.058;2022-10-16T01:41:59;100769.78;;;13.77;76.74
67109;BME280;54027;50.786;7.058;2022-10-16T01:44:27;100776.66;;;13.80;76.56
67109;BME280;54027;50.786;7.058;2022-10-16T01:46:54;100771.59;;;13.75;76.31
67109;BME280;54027;50.786;7.058;2022-10-16T01:49:20;100781.97;;;13.77;76.45
67109;BME280;54027;50.786;7.058;2022-10-16T01:51:47;100779.44;;;13.75;76.39
67109;BME280;54027;50.786;7.058;2022-10-16T01:54:14;100781.00;;;13.80;76.50
67109;BME280;54027;50.786;7.058;2022-10-16T01:56:41;100783.41;;;13.86;76.71
67109;BME280;54027;50.786;7.058;2022-10-16T01:59:11;100780.97;;;13.81;76.60
67109;BME280;54027;50.786;7.058;2022-10-16T02:01:38;100780.13;;;13.81;76.51
67109;BME280;54027;50.786;7.058;2022-10-16T02:04:09;100778.19;;;13.86;76.79
67109;BME280;54027;50.786;7.058;2022-10-16T02:06:35;100781.72;;;13.85;76.50
67109;BME280;54027;50.786;7.058;2022-10-16T02:09:01;100781.72;;;13.85;76.78
67109;BME280;54027;50.786;7.058;2022-10-16T02:11:26;100775.56;;;13.86;76.73
67109;BME280;54027;50.786;7.058;2022-10-16T02:13:53;100786.03;;;13.86;76.81
67109;BME280;54027;50.786;7.058;2022-10-16T02:16:20;100792.09;;;13.86;77.00
67109;BME280;54027;50.786;7.058;2022-10-16T02:18:45;100789.38;;;13.89;76.84
67109;BME280;54027;50.786;7.058;2022-10-16T02:21:19;100787.66;;;13.88;77.03
67109;BME280;54027;50.786;7.058;2022-10-16T02:26:26;100786.84;;;13.88;77.12
67109;BME280;54027;50.786;7.058;2022-10-16T02:28:54;100776.34;;;13.89;76.75
67109;BME280;54027;50.786;7.058;2022-10-16T02:31:27;100776.28;;;13.91;76.58
67109;BME280;54027;50.786;7.058;2022-10-16T02:33:56;100779.59;;;13.96;76.24
67109;BME280;54027;50.786;7.058;2022-10-16T02:36:23;100787.47;;;13.94;76.50
67109;BME280;54027;50.786;7.058;2022-10-16T02:38:49;100793.53;;;13.95;76.22
67109;BME280;54027;50.786;7.058;2022-10-16T02:41:15;100791.69;;;13.98;76.44
67109;BME280;54027;50.786;7.058;2022-10-16T02:43:41;100800.47;;;13.96;76.26
67109;BME280;54027;50.786;7.058;2022-10-16T02:46:06;100797.66;;;14.02;75.93
67109;BME280;54027;50.786;7.058;2022-10-16T02:48:31;100790.69;;;14.02;76.12
67109;BME280;54027;50.786;7.058;2022-10-16T02:50:57;100785.69;;;13.96;75.85
67109;BME280;54027;50.786;7.058;2022-10-16T02:53:22;100790.78;;;13.99;75.79
67109;BME280;54027;50.786;7.058;2022-10-16T02:55:47;100785.56;;;13.99;76.23
67109;BME280;54027;50.786;7.058;2022-10-16T02:58:12;100803.75;;;14.02;76.03
67109;BME280;54027;50.786;7.058;2022-10-16T03:00:38;100796.72;;;14.03;76.22
67109;BME280;54027;50.786;7.058;2022-10-16T03:03:03;100805.50;;;14.02;75.95
67109;BME280;54027;50.786;7.058;2022-10-16T03:05:28;100805.44;;;14.03;76.14
67109;BME280;54027;50.786;7.058;2022-10-16T03:07:54;100792.44;;;14.02;76.17
67109;BME280;54027;50.786;7.058;2022-10-16T03:10:19;100789.81;;;14.02;76.47
67109;BME280;54027;50.786;7.058;2022-10-16T03:12:44;100787.31;;;13.99;76.43
67109;BME280;54027;50.786;7.058;2022-10-16T03:15:10;100789.06;;;13.98;76.85
67109;BME280;54027;50.786;7.058;2022-10-16T03:17:35;100787.16;;;14.03;76.45
67109;BME280;54027;50.786;7.058;2022-10-16T03:20:01;100783.69;;;14.03;76.22
67109;BME280;54027;50.786;7.058;2022-10-16T03:22:26;100790.72;;;14.01;76.28
67109;BME280;54027;50.786;7.058;2022-10-16T03:24:52;100792.44;;;14.02;76.97
67109;BME280;54027;50.786;7.058;2022-10-16T03:27:17;100801.16;;;14.01;76.44
67109;BME280;54027;50.786;7.058;2022-10-16T03:29:43;100799.53;;;13.98;76.68
67109;BME280;54027;50.786;7.058;2022-10-16T03:32:08;100789.97;;;13.97;76.86
67109;BME280;54027;50.786;7.058;2022-10-16T03:34:33;100792.53;;;13.99;76.67
67109;BME280;54027;50.786;7.058;2022-10-16T03:36:58;100789.00;;;14.00;76.81
67109;BME280;54027;50.786;7.058;2022-10-16T03:39:24;100788.09;;;14.01;76.73
67109;BME280;54027;50.786;7.058;2022-10-16T03:41:49;100795.91;;;14.02;76.40
67109;BME280;54027;50.786;7.058;2022-10-16T03:44:14;100788.06;;;14.02;75.67
67109;BME280;54027;50.786;7.058;2022-10-16T03:46:40;100802.81;;;14.03;75.48
67109;BME280;54027;50.786;7.058;2022-10-16T03:49:05;100807.06;;;14.06;75.38
67109;BME280;54027;50.786;7.058;2022-10-16T03:51:30;100800.19;;;14.03;75.16
67109;BME280;54027;50.786;7.058;2022-10-16T03:53:55;100801.91;;;14.04;74.43
67109;BME280;54027;50.786;7.058;2022-10-16T03:56:21;100811.41;;;14.07;75.29
67109;BME280;54027;50.786;7.058;2022-10-16T03:58:46;100812.19;;;14.09;75.15
67109;BME280;54027;50.786;7.058;2022-10-16T04:01:11;100820.09;;;14.07;75.26
67109;BME280;54027;50.786;7.058;2022-10-16T04:03:37;100821.00;;;14.06;74.81
67109;BME280;54027;50.786;7.058;2022-10-16T04:06:02;100827.97;;;14.06;75.49
67109;BME280;54027;50.786;7.058;2022-10-16T04:08:27;100830.66;;;14.04;75.90
67109;BME280;54027;50.786;7.058;2022-10-16T04:10:52;100844.72;;;14.00;75.88
67109;BME280;54027;50.786;7.058;2022-10-16T04:13:18;100846.34;;;14.03;75.84
67109;BME280;54027;50.786;7.058;2022-10-16T04:15:44;100844.69;;;14.02;75.53
67109;BME280;54027;50.786;7.058;2022-10-16T04:18:09;100838.59;;;14.01;76.28
67109;BME280;54027;50.786;7.058;2022-10-16T04:20:35;100842.09;;;14.00;76.42
67109;BME280;54027;50.786;7.058;2022-10-16T04:23:00;100835.09;;;14.02;76.43
67109;BME280;54027;50.786;7.058;2022-10-16T04:25:25;100828.19;;;14.00;76.15
67109;BME280;54027;50.786;7.058;2022-10-16T04:27:52;100837.69;;;14.02;75.84
67109;BME280;54027;50.786;7.058;2022-10-16T04:30:18;100840.34;;;14.01;76.08
67109;BME280;54027;50.786;7.058;2022-10-16T04:32:43;100848.94;;;14.04;76.07
67109;BME280;54027;50.786;7.058;2022-10-16T04:35:12;100854.41;;;13.97;75.53
67109;BME280;54027;50.786;7.058;2022-10-16T04:37:37;100861.25;;;14.01;75.20
67109;BME280;54027;50.786;7.058;2022-10-16T04:40:03;100860.34;;;14.02;76.15
67109;BME280;54027;50.786;7.058;2022-10-16T04:42:28;100858.63;;;14.01;76.31
67109;BME280;54027;50.786;7.058;2022-10-16T04:44:53;100862.03;;;14.03;75.86
67109;BME280;54027;50.786;7.058;2022-10-16T04:47:19;100862.97;;;14.02;76.09
67109;BME280;54027;50.786;7.058;2022-10-16T04:49:44;100860.25;;;14.05;75.42
67109;BME280;54027;50.786;7.058;2022-10-16T04:52:09;100855.91;;;14.04;75.23
67109;BME280;54027;50.786;7.058;2022-10-16T04:54:34;100861.03;;;14.07;75.73
67109;BME280;54027;50.786;7.058;2022-10-16T04:57:00;100859.28;;;14.07;75.04
67109;BME280;54027;50.786;7.058;2022-10-16T04:59:25;100862.75;;;14.08;74.96
67109;BME280;54027;50.786;7.058;2022-10-16T05:01:50;100862.91;;;14.03;75.40
67109;BME280;54027;50.786;7.058;2022-10-16T05:04:15;100864.91;;;13.95;75.35
67109;BME280;54027;50.786;7.058;2022-10-16T05:06:41;100879.72;;;13.95;74.95
67109;BME280;54027;50.786;7.058;2022-10-16T05:09:07;100888.34;;;13.97;74.93
67109;BME280;54027;50.786;7.058;2022-10-16T05:11:33;100878.88;;;13.94;74.58
67109;BME280;54027;50.786;7.058;2022-10-16T05:13:58;100873.59;;;13.96;75.60
67109;BME280;54027;50.786;7.058;2022-10-16T05:16:23;100871.84;;;13.96;75.30
67109;BME280;54027;50.786;7.058;2022-10-16T05:18:49;100877.13;;;13.95;76.02
67109;BME280;54027;50.786;7.058;2022-10-16T05:21:15;100877.97;;;13.95;75.76
67109;BME280;54027;50.786;7.058;2022-10-16T05:23:41;100865.81;;;13.94;76.08
67109;BME280;54027;50.786;7.058;2022-10-16T05:26:06;100869.19;;;13.98;75.86
67109;BME280;54027;50.786;7.058;2022-10-16T05:28:31;100877.91;;;13.97;76.05
67109;BME280;54027;50.786;7.058;2022-10-16T05:30:57;100879.59;;;13.99;76.39
67109;BME280;54027;50.786;7.058;2022-10-16T05:33:23;100876.91;;;14.01;76.67
67109;BME280;54027;50.786;7.058;2022-10-16T05:35:49;100892.69;;;13.98;76.50
67109;BME280;54027;50.786;7.058;2022-10-16T05:38:15;100898.88;;;13.95;76.55
67109;BME280;54027;50.786;7.058;2022-10-16T05:40:40;100895.25;;;13.99;76.50
67109;BME280;54027;50.786;7.058;2022-10-16T05:43:05;100876.03;;;14.02;76.58
67109;BME280;54027;50.786;7.058;2022-10-16T05:45:31;100890.94;;;13.98;76.73
67109;BME280;54027;50.786;7.058;2022-10-16T05:47:56;100888.34;;;13.97;76.48
67109;BME280;54027;50.786;7.058;2022-10-16T05:50:21;100894.50;;;13.96;76.75
67109;BME280;54027;50.786;7.058;2022-10-16T05:52:46;100901.41;;;13.97;76.45
67109;BME280;54027;50.786;7.058;2022-10-16T05:55:12;100904.03;;;13.97;76.02
67109;BME280;54027;50.786;7.058;2022-10-16T05:57:37;100909.22;;;13.98;75.70
67109;BME280;54027;50.786;7.058;2022-10-16T06:00:03;100923.13;;;13.99;75.76
67109;BME280;54027;50.786;7.058;2022-10-16T06:02:29;100924.03;;;13.98;75.90
67109;BME280;54027;50.786;7.058;2022-10-16T06:04:54;100925.75;;;13.99;76.28
67109;BME280;54027;50.786;7.058;2022-10-16T06:07:19;100922.22;;;14.00;76.75
67109;BME280;54027;50.786;7.058;2022-10-16T06:09:47;100927.41;;;14.01;76.25
67109;BME280;54027;50.786;7.058;2022-10-16T06:12:12;100930.03;;;14.00;76.35
67109;BME280;54027;50.786;7.058;2022-10-16T06:14:38;100937.94;;;13.98;76.67
67109;BME280;54027;50.786;7.058;2022-10-16T06:17:03;100945.00;;;13.95;76.54
67109;BME280;54027;50.786;7.058;2022-10-16T06:19:28;100945.13;;;13.92;76.84
67109;BME280;54027;50.786;7.058;2022-10-16T06:21:54;100952.84;;;13.95;76.84
67109;BME280;54027;50.786;7.058;2022-10-16T06:24:19;100950.22;;;13.96;77.13
67109;BME280;54027;50.786;7.058;2022-10-16T06:26:44;100955.53;;;13.93;77.27
67109;BME280;54027;50.786;7.058;2022-10-16T06:29:09;100959.09;;;13.91;77.32
67109;BME280;54027;50.786;7.058;2022-10-16T06:31:35;100958.28;;;13.89;77.21
67109;BME280;54027;50.786;7.058;2022-10-16T06:34:00;100953.13;;;13.86;77.51
67109;BME280;54027;50.786;7.058;2022-10-16T06:36:26;100961.81;;;13.88;77.91
67109;BME280;54027;50.786;7.058;2022-10-16T06:38:51;100976.75;;;13.83;77.97
67109;BME280;54027;50.786;7.058;2022-10-16T06:41:18;100986.22;;;13.85;78.15
67109;BME280;54027;50.786;7.058;2022-10-16T06:43:43;100994.91;;;13.87;78.08
67109;BME280;54027;50.786;7.058;2022-10-16T06:46:10;100983.53;;;13.88;78.06
67109;BME280;54027;50.786;7.058;2022-10-16T06:48:36;100975.78;;;13.85;78.19
67109;BME280;54027;50.786;7.058;2022-10-16T06:51:02;100987.06;;;13.87;78.79
67109;BME280;54027;50.786;7.058;2022-10-16T06:53:31;100996.78;;;13.82;78.56
67109;BME280;54027;50.786;7.058;2022-10-16T06:55:57;101001.97;;;13.84;78.93
67109;BME280;54027;50.786;7.058;2022-10-16T06:58:22;100999.16;;;13.90;78.34
67109;BME280;54027;50.786;7.058;2022-10-16T07:00:48;101005.28;;;13.89;78.41
67109;BME280;54027;50.786;7.058;2022-10-16T07:03:13;101008.72;;;13.91;78.90
67109;BME280;54027;50.786;7.058;2022-10-16T07:05:41;101013.00;;;13.92;79.00
67109;BME280;54027;50.786;7.058;2022-10-16T07:08:07;101011.34;;;13.89;79.41
67109;BME280;54027;50.786;7.058;2022-10-16T07:10:33;101016.66;;;13.86;79.39
67109;BME280;54027;50.786;7.058;2022-10-16T07:12:59;101027.13;;;13.86;79.40
67109;BME280;54027;50.786;7.058;2022-10-16T07:15:24;101035.00;;;13.85;79.58
67109;BME280;54027;50.786;7.058;2022-10-16T07:17:50;101037.56;;;13.86;79.82
67109;BME280;54027;50.786;7.058;2022-10-16T07:20:15;101040.16;;;13.88;79.76
67109;BME280;54027;50.786;7.058;2022-10-16T07:22:40;101049.66;;;13.89;79.88
67109;BME280;54027;50.786;7.058;2022-10-16T07:25:06;101056.63;;;13.90;79.56
67109;BME280;54027;50.786;7.058;2022-10-16T07:27:31;101054.88;;;13.89;80.06
67109;BME280;54027;50.786;7.058;2022-10-16T07:29:56;101066.16;;;13.91;79.98
67109;BME280;54027;50.786;7.058;2022-10-16T07:32:22;101062.72;;;13.89;80.15
67109;BME280;54027;50.786;7.058;2022-10-16T07:34:47;101067.06;;;13.90;79.91
67109;BME280;54027;50.786;7.058;2022-10-16T07:37:12;101080.16;;;13.88;80.27
67109;BME280;54027;50.786;7.058;2022-10-16T07:39:37;101076.41;;;13.97;79.87
67109;BME280;54027;50.786;7.058;2022-10-16T07:42:03;101075.56;;;13.96;80.29
67109;BME280;54027;50.786;7.058;2022-10-16T07:44:28;101083.31;;;13.99;80.19
67109;BME280;54027;50.786;7.058;2022-10-16T07:46:55;101082.41;;;14.00;79.92
67109;BME280;54027;50.786;7.058;2022-10-16T07:49:21;101083.25;;;14.01;79.89
67109;BME280;54027;50.786;7.058;2022-10-16T07:51:46;101091.00;;;14.04;79.35
67109;BME280;54027;50.786;7.058;2022-10-16T07:54:11;101097.13;;;14.03;79.65
67109;BME280;54027;50.786;7.058;2022-10-16T07:56:37;101106.75;;;14.01;79.79
67109;BME280;54027;50.786;7.058;2022-10-16T07:59:02;101105.03;;;14.00;79.58
67109;BME280;54027;50.786;7.058;2022-10-16T08:01:27;101118.19;;;13.97;79.63
67109;BME280;54027;50.786;7.058;2022-10-16T08:03:53;101124.28;;;13.97;79.55
67109;BME280;54027;50.786;7.058;2022-10-16T08:06:18;101126.03;;;13.97;79.24
67109;BME280;54027;50.786;7.058;2022-10-16T08:08:44;101120.06;;;13.93;79.41
67109;BME280;54027;50.786;7.058;2022-10-16T08:11:10;101125.19;;;13.96;79.36
67109;BME280;54027;50.786;7.058;2022-10-16T08:13:35;101123.63;;;13.91;79.57
67109;BME280;54027;50.786;7.058;2022-10-16T08:16:01;101120.25;;;13.86;79.85
67109;BME280;54027;50.786;7.058;2022-10-16T08:18:26;101134.09;;;13.89;79.55
67109;BME280;54027;50.786;7.058;2022-10-16T08:20:55;101129.91;;;13.84;79.79
67109;BME280;54027;50.786;7.058;2022-10-16T08:23:21;101135.84;;;13.89;79.52
67109;BME280;54027;50.786;7.058;2022-10-16T08:25:47;101136.72;;;13.89;79.62
67109;BME280;54027;50.786;7.058;2022-10-16T08:28:12;101139.38;;;13.88;79.79
67109;BME280;54027;50.786;7.058;2022-10-16T08:30:37;101142.91;;;13.85;79.69
67109;BME280;54027;50.786;7.058;2022-10-16T08:33:06;101141.13;;;13.87;79.92
67109;BME280;54027;50.786;7.058;2022-10-16T08:35:31;101141.91;;;13.91;80.02
67109;BME280;54027;50.786;7.058;2022-10-16T08:37:56;101151.34;;;13.95;79.93
67109;BME280;54027;50.786;7.058;2022-10-16T08:40:23;101153.06;;;13.96;79.58
67109;BME280;54027;50.786;7.058;2022-10-16T08:45:32;101158.19;;;13.99;79.67
67109;BME280;54027;50.786;7.058;2022-10-16T08:50:25;101164.91;;;14.07;78.83
67109;BME280;54027;50.786;7.058;2022-10-16T08:52:52;101170.00;;;14.12;78.55
67109;BME280;54027;50.786;7.058;2022-10-16T08:55:27;101173.44;;;14.14;78.97
67109;BME280;54027;50.786;7.058;2022-10-16T08:57:53;101166.41;;;14.16;78.46
67109;BME280;54027;50.786;7.058;2022-10-16T09:00:18;101171.72;;;14.13;78.55
67109;BME280;54027;50.786;7.058;2022-10-16T09:23:00;101189.75;;;14.22;78.11
67109;BME280;54027;50.786;7.058;2022-10-16T09:25:32;101187.91;;;14.25;77.52
67109;BME280;54027;50.786;7.058;2022-10-16T09:27:58;101197.41;;;14.28;76.74
67109;BME280;54027;50.786;7.058;2022-10-16T09:30:26;101189.47;;;14.31;76.25
67109;BME280;54027;50.786;7.058;2022-10-16T09:32:52;101193.81;;;14.32;76.04
67109;BME280;54027;50.786;7.058;2022-10-16T09:35:29;101195.59;;;14.30;76.98
67109;BME280;54027;50.786;7.058;2022-10-16T09:37:57;101184.94;;;14.36;76.71
67109;BME280;54027;50.786;7.058;2022-10-16T09:40:38;101187.19;;;14.48;75.87
67109;BME280;54027;50.786;7.058;2022-10-16T09:45:38;101187.09;;;14.51;75.33
67109;BME280;54027;50.786;7.058;2022-10-16T09:48:10;101176.72;;;14.50;74.67
67109;BME280;54027;50.786;7.058;2022-10-16T09:50:36;101188.94;;;14.48;74.56
67109;BME280;54027;50.786;7.058;2022-10-16T09:53:05;101177.50;;;14.52;74.28
67109;BME280;54027;50.786;7.058;2022-10-16T09:55:31;101194.94;;;14.51;73.32
67109;BME280;54027;50.786;7.058;2022-10-16T09:57:56;101194.19;;;14.48;74.05
67109;BME280;54027;50.786;7.058;2022-10-16T10:00:22;101196.84;;;14.46;74.98
67109;BME280;54027;50.786;7.058;2022-10-16T10:02:47;101191.56;;;14.48;75.19
67109;BME280;54027;50.786;7.058;2022-10-16T10:07:44;101186.88;;;14.59;73.75
67109;BME280;54027;50.786;7.058;2022-10-16T10:10:21;101184.13;;;14.63;72.15
67109;BME280;54027;50.786;7.058;2022-10-16T10:12:47;101177.03;;;14.67;72.62
67109;BME280;54027;50.786;7.058;2022-10-16T10:15:12;101170.00;;;14.69;72.37
67109;BME280;54027;50.786;7.058;2022-10-16T10:17:48;101171.81;;;14.67;72.60
67109;BME280;54027;50.786;7.058;2022-10-16T10:20:24;101172.56;;;14.70;71.77
67109;BME280;54027;50.786;7.058;2022-10-16T10:22:50;101167.25;;;14.73;70.91
67109;BME280;54027;50.786;7.058;2022-10-16T10:25:20;101167.22;;;14.75;71.27
67109;BME280;54027;50.786;7.058;2022-10-16T10:32:52;101154.44;;;14.92;70.58
67109;BME280;54027;50.786;7.058;2022-10-16T10:38:00;101171.91;;;15.18;65.83
67109;BME280;54027;50.786;7.058;2022-10-16T10:45:55;101171.28;;;15.10;67.75
67109;BME280;54027;50.786;7.058;2022-10-16T10:48:26;101174.47;;;15.19;66.35
67109;BME280;54027;50.786;7.058;2022-10-16T10:51:11;101174.53;;;15.18;66.74
67109;BME280;54027;50.786;7.058;2022-10-16T10:53:51;101168.56;;;15.13;64.83
67109;BME280;54027;50.786;7.058;2022-10-16T10:56:23;101167.88;;;15.08;66.83
67109;BME280;54027;50.786;7.058;2022-10-16T11:01:24;101177.69;;;15.01;68.76
67109;BME280;54027;50.786;7.058;2022-10-16T11:04:00;101176.13;;;14.96;68.53
67109;BME280;54027;50.786;7.058;2022-10-16T11:06:33;101172.75;;;14.92;68.39
67109;BME280;54027;50.786;7.058;2022-10-16T11:11:46;101184.66;;;15.02;67.84
67109;BME280;54027;50.786;7.058;2022-10-16T11:16:53;101182.19;;;14.98;67.69
67109;BME280;54027;50.786;7.058;2022-10-16T11:30:01;101170.28;;;15.14;65.05
67109;BME280;54027;50.786;7.058;2022-10-16T11:32:28;101176.41;;;15.14;65.03
67109;BME280;54027;50.786;7.058;2022-10-16T11:35:10;101177.56;;;15.06;66.73
67109;BME280;54027;50.786;7.058;2022-10-16T11:37:37;101179.22;;;15.08;67.00
67109;BME280;54027;50.786;7.058;2022-10-16T11:40:28;101182.06;;;15.01;68.98
67109;BME280;54027;50.786;7.058;2022-10-16T11:42:54;101192.59;;;14.99;68.93
67109;BME280;54027;50.786;7.058;2022-10-16T11:47:48;101188.22;;;15.00;69.18
67109;BME280;54027;50.786;7.058;2022-10-16T11:53:28;101199.44;;;15.03;69.25
67109;BME280;54027;50.786;7.058;2022-10-16T11:55:30;101197.63;;;15.05;69.42
67109;BME280;54027;50.786;7.058;2022-10-16T11:57:57;101196.88;;;15.02;69.67
67109;BME280;54027;50.786;7.058;2022-10-16T12:00:28;101196.84;;;15.03;69.32
67109;BME280;54027;50.786;7.058;2022-10-16T12:02:58;101200.94;;;15.10;69.34
67109;BME280;54027;50.786;7.058;2022-10-16T12:06:14;101201.88;;;15.09;69.37
67109;BME280;54027;50.786;7.058;2022-10-16T12:08:13;101194.31;;;15.26;66.53
67109;BME280;54027;50.786;7.058;2022-10-16T12:10:40;101192.47;;;15.28;65.83
67109;BME280;54027;50.786;7.058;2022-10-16T12:15:50;101198.09;;;15.18;69.10
67109;BME280;54027;50.786;7.058;2022-10-16T12:18:22;101195.28;;;15.24;67.62
67109;BME280;54027;50.786;7.058;2022-10-16T12:20:54;101189.22;;;15.22;68.29
67109;BME280;54027;50.786;7.058;2022-10-16T12:23:23;101181.56;;;15.16;68.40
67109;BME280;54027;50.786;7.058;2022-10-16T12:25:56;101183.03;;;15.24;66.00
67109;BME280;54027;50.786;7.058;2022-10-16T12:28:25;101190.16;;;15.19;68.45
67109;BME280;54027;50.786;7.058;2022-10-16T12:30:55;101190.28;;;15.16;67.80
67109;BME280;54027;50.786;7.058;2022-10-16T12:33:21;101201.69;;;15.14;68.83
67109;BME280;54027;50.786;7.058;2022-10-16T12:35:48;101194.66;;;15.16;68.88
67109;BME280;54027;50.786;7.058;2022-10-16T12:40:46;101190.34;;;15.15;69.35
67109;BME280;54027;50.786;7.058;2022-10-16T12:48:39;101186.00;;;15.14;70.00
67109;BME280;54027;50.786;7.058;2022-10-16T12:53:45;101178.00;;;15.18;71.12
67109;BME280;54027;50.786;7.058;2022-10-16T13:01:11;101175.31;;;15.20;71.37
67109;BME280;54027;50.786;7.058;2022-10-16T13:09:30;101189.31;;;15.19;72.27
67109;BME280;54027;50.786;7.058;2022-10-16T13:17:13;101185.00;;;15.18;72.83
67109;BME280;54027;50.786;7.058;2022-10-16T13:19:44;101189.31;;;15.19;73.30
67109;BME280;54027;50.786;7.058;2022-10-16T13:22:18;101189.31;;;15.19;73.27
67109;BME280;54027;50.786;7.058;2022-10-16T13:24:52;101189.28;;;15.20;72.56
67109;BME280;54027;50.786;7.058;2022-10-16T13:30:09;101188.31;;;15.23;73.43
67109;BME280;54027;50.786;7.058;2022-10-16T13:32:36;101194.31;;;15.26;73.31
67109;BME280;54027;50.786;7.058;2022-10-16T13:35:01;101193.38;;;15.27;71.37
67109;BME280;54027;50.786;7.058;2022-10-16T13:37:29;101194.13;;;15.31;69.82
67109;BME280;54027;50.786;7.058;2022-10-16T13:40:09;101204.59;;;15.31;73.05
67109;BME280;54027;50.786;7.058;2022-10-16T13:42:42;101202.94;;;15.28;71.78
67109;BME280;54027;50.786;7.058;2022-10-16T13:45:16;101200.22;;;15.31;72.96
67109;BME280;54027;50.786;7.058;2022-10-16T13:47:42;101190.66;;;15.30;72.53
67109;BME280;54027;50.786;7.058;2022-10-16T13:50:15;101190.56;;;15.33;70.92
67109;BME280;54027;50.786;7.058;2022-10-16T13:52:40;101193.16;;;15.33;71.34
67109;BME280;54027;50.786;7.058;2022-10-16T13:55:12;101184.44;;;15.34;69.95
67109;BME280;54027;50.786;7.058;2022-10-16T13:57:39;101192.22;;;15.61;69.22
67109;BME280;54027;50.786;7.058;2022-10-16T14:00:17;101189.63;;;15.61;69.71
67109;BME280;54027;50.786;7.058;2022-10-16T14:02:42;101192.75;;;15.46;69.56
67109;BME280;54027;50.786;7.058;2022-10-16T14:05:08;101193.59;;;15.48;70.88
67109;BME280;54027;50.786;7.058;2022-10-16T14:07:35;101197.00;;;15.50;70.91
67109;BME280;54027;50.786;7.058;2022-10-16T14:10:02;101193.47;;;15.51;71.78
67109;BME280;54027;50.786;7.058;2022-10-16T14:12:28;101185.97;;;15.40;71.61
67109;BME280;54027;50.786;7.058;2022-10-16T14:14:54;101192.53;;;15.52;71.27
67109;BME280;54027;50.786;7.058;2022-10-16T14:17:30;101193.47;;;15.51;71.73
67109;BME280;54027;50.786;7.058;2022-10-16T14:19:57;101194.00;;;15.60;70.83
67109;BME280;54027;50.786;7.058;2022-10-16T14:22:28;101190.84;;;15.51;71.92
67109;BME280;54027;50.786;7.058;2022-10-16T14:24:54;101190.31;;;15.41;70.22
67109;BME280;54027;50.786;7.058;2022-10-16T14:27:41;101185.88;;;15.43;72.28
67109;BME280;54027;50.786;7.058;2022-10-16T14:32:37;101186.59;;;15.48;71.35
67109;BME280;54027;50.786;7.058;2022-10-16T14:35:11;101184.88;;;15.47;70.85
67109;BME280;54027;50.786;7.058;2022-10-16T14:37:50;101183.16;;;15.46;70.77
67109;BME280;54027;50.786;7.058;2022-10-16T14:40:16;101183.16;;;15.46;71.71
67109;BME280;54027;50.786;7.058;2022-10-16T14:42:43;101191.66;;;15.53;71.74
67109;BME280;54027;50.786;7.058;2022-10-16T14:45:09;101192.66;;;15.49;72.56
67109;BME280;54027;50.786;7.058;2022-10-16T14:47:35;101190.25;;;15.42;72.18
67109;BME280;54027;50.786;7.058;2022-10-16T14:50:02;101188.50;;;15.43;71.72
67109;BME280;54027;50.786;7.058;2022-10-16T14:52:27;101193.72;;;15.43;72.26
67109;BME280;54027;50.786;7.058;2022-10-16T14:54:52;101192.06;;;15.40;73.04
67109;BME280;54027;50.786;7.058;2022-10-16T14:57:22;101190.31;;;15.41;72.59